CheckWX is a tool to help pilots better visualize weather data.  It is not intended as a substitute for an official pre-flight weather briefing.

08:43:29 UTC

5M9 METAR
Marion-Crittenden County Airport
Marion, Kentucky, USA
Current

8 mins ago

K5M9 180835Z AUTO 00000KT 10SM CLR 05/02 A3002 RMK AO2 T00510021
Observed
Oct-18 @ 08:35 UTC
Visibility
10 SM
Flight Rules
VFR
Cloud Levels
  • Clear skies
Temperature
C / 41°F
Dewpoint
C / 36°F
Humidity
81%
Altimeter
30.02" Hg
Pressure
1016.62 hPa
Previous

28 mins ago

K5M9 180815Z AUTO 12003KT 10SM CLR 05/02 A3002 RMK AO2 T00480022
Observed
Oct-18 @ 08:15 UTC
Wind
  • 120° at 3 KTS
Visibility
10 SM
Flight Rules
VFR
Cloud Levels
  • Clear skies
Temperature
C / 41°F
Dewpoint
C / 36°F
Humidity
81%
Altimeter
30.02" Hg
Pressure
1016.62 hPa
Previous

48 mins ago

K5M9 180755Z AUTO 07004KT 10SM CLR 05/02 A3001 RMK AO2 T00450023
Observed
Oct-18 @ 07:55 UTC
Wind
  • 070° at 4 KTS
Visibility
10 SM
Flight Rules
VFR
Cloud Levels
  • Clear skies
Temperature
C / 41°F
Dewpoint
C / 36°F
Humidity
81%
Altimeter
30.01" Hg
Pressure
1016.22 hPa